sensor_id;sensor_type;location;lat;lon;timestamp;P1;durP1;ratioP1;P2;durP2;ratioP2
4365;SDS011;2196;47.422;9.656;2022-09-09T00:02:15;1.50;;;1.37;;
4365;SDS011;2196;47.422;9.656;2022-09-09T00:04:46;1.73;;;1.63;;
4365;SDS011;2196;47.422;9.656;2022-09-09T00:07:25;1.43;;;1.33;;
4365;SDS011;2196;47.422;9.656;2022-09-09T00:10:07;2.33;;;1.25;;
4365;SDS011;2196;47.422;9.656;2022-09-09T00:12:47;1.30;;;1.20;;
4365;SDS011;2196;47.422;9.656;2022-09-09T00:15:21;2.10;;;0.80;;
4365;SDS011;2196;47.422;9.656;2022-09-09T00:17:53;2.40;;;1.53;;
4365;SDS011;2196;47.422;9.656;2022-09-09T00:20:28;1.50;;;1.23;;
4365;SDS011;2196;47.422;9.656;2022-09-09T00:23:00;0.87;;;0.80;;
4365;SDS011;2196;47.422;9.656;2022-09-09T00:25:34;2.10;;;1.20;;
4365;SDS011;2196;47.422;9.656;2022-09-09T00:28:13;2.00;;;1.20;;
4365;SDS011;2196;47.422;9.656;2022-09-09T00:30:49;1.43;;;0.90;;
4365;SDS011;2196;47.422;9.656;2022-09-09T00:33:17;0.90;;;0.90;;
4365;SDS011;2196;47.422;9.656;2022-09-09T00:35:47;1.13;;;1.00;;
4365;SDS011;2196;47.422;9.656;2022-09-09T00:38:18;4.13;;;1.00;;
4365;SDS011;2196;47.422;9.656;2022-09-09T00:40:50;2.73;;;1.47;;
4365;SDS011;2196;47.422;9.656;2022-09-09T00:43:31;1.30;;;1.30;;
4365;SDS011;2196;47.422;9.656;2022-09-09T00:46:14;2.50;;;0.87;;
4365;SDS011;2196;47.422;9.656;2022-09-09T00:48:52;1.30;;;0.87;;
4365;SDS011;2196;47.422;9.656;2022-09-09T00:51:27;1.23;;;0.83;;
4365;SDS011;2196;47.422;9.656;2022-09-09T00:54:13;1.43;;;1.10;;
4365;SDS011;2196;47.422;9.656;2022-09-09T00:56:47;0.97;;;0.77;;
4365;SDS011;2196;47.422;9.656;2022-09-09T00:59:31;1.30;;;1.30;;
4365;SDS011;2196;47.422;9.656;2022-09-09T01:02:07;1.73;;;1.13;;
4365;SDS011;2196;47.422;9.656;2022-09-09T01:04:42;1.80;;;1.00;;
4365;SDS011;2196;47.422;9.656;2022-09-09T01:07:11;1.80;;;1.17;;
4365;SDS011;2196;47.422;9.656;2022-09-09T01:09:45;0.77;;;0.77;;
4365;SDS011;2196;47.422;9.656;2022-09-09T01:12:24;1.17;;;0.80;;
4365;SDS011;2196;47.422;9.656;2022-09-09T01:14:58;1.70;;;1.10;;
4365;SDS011;2196;47.422;9.656;2022-09-09T01:17:31;1.90;;;0.80;;
4365;SDS011;2196;47.422;9.656;2022-09-09T01:20:05;3.87;;;1.40;;
4365;SDS011;2196;47.422;9.656;2022-09-09T01:22:40;1.73;;;0.83;;
4365;SDS011;2196;47.422;9.656;2022-09-09T01:25:26;2.17;;;0.97;;
4365;SDS011;2196;47.422;9.656;2022-09-09T01:27:59;1.13;;;1.00;;
4365;SDS011;2196;47.422;9.656;2022-09-09T01:30:29;1.30;;;1.20;;
4365;SDS011;2196;47.422;9.656;2022-09-09T01:32:59;1.40;;;1.40;;
4365;SDS011;2196;47.422;9.656;2022-09-09T01:35:29;1.03;;;1.03;;
4365;SDS011;2196;47.422;9.656;2022-09-09T01:38:03;1.40;;;1.30;;
4365;SDS011;2196;47.422;9.656;2022-09-09T01:40:31;1.13;;;1.00;;
4365;SDS011;2196;47.422;9.656;2022-09-09T01:42:59;1.17;;;1.17;;
4365;SDS011;2196;47.422;9.656;2022-09-09T01:45:27;1.53;;;0.83;;
4365;SDS011;2196;47.422;9.656;2022-09-09T01:47:54;2.40;;;1.20;;
4365;SDS011;2196;47.422;9.656;2022-09-09T01:50:22;1.80;;;1.17;;
4365;SDS011;2196;47.422;9.656;2022-09-09T01:52:50;1.53;;;1.43;;
4365;SDS011;2196;47.422;9.656;2022-09-09T01:55:20;1.10;;;1.00;;
4365;SDS011;2196;47.422;9.656;2022-09-09T01:57:55;1.30;;;1.30;;
4365;SDS011;2196;47.422;9.656;2022-09-09T02:00:36;3.00;;;1.30;;
4365;SDS011;2196;47.422;9.656;2022-09-09T02:03:08;2.20;;;1.63;;
4365;SDS011;2196;47.422;9.656;2022-09-09T02:05:49;4.33;;;1.63;;
4365;SDS011;2196;47.422;9.656;2022-09-09T02:08:23;2.77;;;1.30;;
4365;SDS011;2196;47.422;9.656;2022-09-09T02:10:56;1.23;;;1.13;;
4365;SDS011;2196;47.422;9.656;2022-09-09T02:13:29;1.43;;;1.30;;
4365;SDS011;2196;47.422;9.656;2022-09-09T02:16:00;1.40;;;1.40;;
4365;SDS011;2196;47.422;9.656;2022-09-09T02:18:32;0.97;;;0.97;;
4365;SDS011;2196;47.422;9.656;2022-09-09T02:21:04;2.30;;;1.83;;
4365;SDS011;2196;47.422;9.656;2022-09-09T02:23:32;2.27;;;2.13;;
4365;SDS011;2196;47.422;9.656;2022-09-09T02:26:02;3.10;;;2.83;;
4365;SDS011;2196;47.422;9.656;2022-09-09T02:28:31;8.47;;;2.77;;
4365;SDS011;2196;47.422;9.656;2022-09-09T02:31:01;7.37;;;4.37;;
4365;SDS011;2196;47.422;9.656;2022-09-09T02:33:30;3.53;;;3.17;;
4365;SDS011;2196;47.422;9.656;2022-09-09T02:36:03;7.23;;;2.20;;
4365;SDS011;2196;47.422;9.656;2022-09-09T02:38:35;1.77;;;1.20;;
4365;SDS011;2196;47.422;9.656;2022-09-09T02:41:06;1.53;;;1.23;;
4365;SDS011;2196;47.422;9.656;2022-09-09T02:43:35;1.67;;;1.57;;
4365;SDS011;2196;47.422;9.656;2022-09-09T02:46:03;1.63;;;1.00;;
4365;SDS011;2196;47.422;9.656;2022-09-09T02:48:44;1.20;;;1.20;;
4365;SDS011;2196;47.422;9.656;2022-09-09T02:51:21;1.43;;;0.90;;
4365;SDS011;2196;47.422;9.656;2022-09-09T02:53:56;1.23;;;0.83;;
4365;SDS011;2196;47.422;9.656;2022-09-09T02:56:30;1.50;;;1.40;;
4365;SDS011;2196;47.422;9.656;2022-09-09T02:59:02;0.93;;;0.93;;
4365;SDS011;2196;47.422;9.656;2022-09-09T03:01:29;1.10;;;1.10;;
4365;SDS011;2196;47.422;9.656;2022-09-09T03:03:57;1.10;;;1.00;;
4365;SDS011;2196;47.422;9.656;2022-09-09T03:06:24;2.30;;;2.10;;
4365;SDS011;2196;47.422;9.656;2022-09-09T03:08:52;2.47;;;1.60;;
4365;SDS011;2196;47.422;9.656;2022-09-09T03:11:19;3.27;;;2.20;;
4365;SDS011;2196;47.422;9.656;2022-09-09T03:13:46;1.60;;;1.47;;
4365;SDS011;2196;47.422;9.656;2022-09-09T03:16:15;1.77;;;1.50;;
4365;SDS011;2196;47.422;9.656;2022-09-09T03:18:42;4.07;;;1.60;;
4365;SDS011;2196;47.422;9.656;2022-09-09T03:21:10;2.83;;;1.40;;
4365;SDS011;2196;47.422;9.656;2022-09-09T03:23:37;1.87;;;1.77;;
4365;SDS011;2196;47.422;9.656;2022-09-09T03:26:04;2.10;;;1.97;;
4365;SDS011;2196;47.422;9.656;2022-09-09T03:28:31;2.27;;;2.07;;
4365;SDS011;2196;47.422;9.656;2022-09-09T03:30:58;4.07;;;2.37;;
4365;SDS011;2196;47.422;9.656;2022-09-09T03:33:27;5.23;;;2.60;;
4365;SDS011;2196;47.422;9.656;2022-09-09T03:35:55;2.33;;;2.00;;
4365;SDS011;2196;47.422;9.656;2022-09-09T03:38:22;1.47;;;1.37;;
4365;SDS011;2196;47.422;9.656;2022-09-09T03:40:50;5.80;;;1.20;;
4365;SDS011;2196;47.422;9.656;2022-09-09T03:43:20;8.67;;;1.30;;
4365;SDS011;2196;47.422;9.656;2022-09-09T03:45:47;2.60;;;1.50;;
4365;SDS011;2196;47.422;9.656;2022-09-09T03:48:15;2.50;;;1.40;;
4365;SDS011;2196;47.422;9.656;2022-09-09T03:50:47;1.47;;;1.40;;
4365;SDS011;2196;47.422;9.656;2022-09-09T03:53:15;1.33;;;1.33;;
4365;SDS011;2196;47.422;9.656;2022-09-09T03:55:47;2.20;;;1.40;;
4365;SDS011;2196;47.422;9.656;2022-09-09T03:58:16;1.47;;;1.40;;
4365;SDS011;2196;47.422;9.656;2022-09-09T04:00:52;1.73;;;1.63;;
4365;SDS011;2196;47.422;9.656;2022-09-09T04:03:21;1.80;;;1.47;;
4365;SDS011;2196;47.422;9.656;2022-09-09T04:05:51;2.50;;;1.37;;
4365;SDS011;2196;47.422;9.656;2022-09-09T04:08:18;1.90;;;1.83;;
4365;SDS011;2196;47.422;9.656;2022-09-09T04:10:46;2.13;;;1.93;;
4365;SDS011;2196;47.422;9.656;2022-09-09T04:13:14;1.67;;;1.57;;
4365;SDS011;2196;47.422;9.656;2022-09-09T04:15:50;1.93;;;1.83;;
4365;SDS011;2196;47.422;9.656;2022-09-09T04:18:18;2.00;;;1.90;;
4365;SDS011;2196;47.422;9.656;2022-09-09T04:20:45;2.47;;;1.70;;
4365;SDS011;2196;47.422;9.656;2022-09-09T04:23:15;2.30;;;1.00;;
4365;SDS011;2196;47.422;9.656;2022-09-09T04:25:47;1.60;;;1.50;;
4365;SDS011;2196;47.422;9.656;2022-09-09T04:28:15;3.07;;;1.70;;
4365;SDS011;2196;47.422;9.656;2022-09-09T04:30:46;1.63;;;1.30;;
4365;SDS011;2196;47.422;9.656;2022-09-09T04:33:16;1.83;;;1.73;;
4365;SDS011;2196;47.422;9.656;2022-09-09T04:35:44;2.00;;;1.67;;
4365;SDS011;2196;47.422;9.656;2022-09-09T04:38:13;5.40;;;1.57;;
4365;SDS011;2196;47.422;9.656;2022-09-09T04:40:46;2.73;;;1.30;;
4365;SDS011;2196;47.422;9.656;2022-09-09T04:43:13;1.27;;;1.07;;
4365;SDS011;2196;47.422;9.656;2022-09-09T04:45:40;1.17;;;0.90;;
4365;SDS011;2196;47.422;9.656;2022-09-09T04:48:08;1.43;;;0.93;;
4365;SDS011;2196;47.422;9.656;2022-09-09T04:50:35;3.07;;;1.43;;
4365;SDS011;2196;47.422;9.656;2022-09-09T04:53:03;1.90;;;1.10;;
4365;SDS011;2196;47.422;9.656;2022-09-09T04:55:32;1.70;;;0.90;;
4365;SDS011;2196;47.422;9.656;2022-09-09T04:58:02;1.27;;;1.10;;
4365;SDS011;2196;47.422;9.656;2022-09-09T05:00:30;1.73;;;0.97;;
4365;SDS011;2196;47.422;9.656;2022-09-09T05:02:57;0.80;;;0.80;;
4365;SDS011;2196;47.422;9.656;2022-09-09T05:05:24;1.17;;;0.80;;
4365;SDS011;2196;47.422;9.656;2022-09-09T05:07:52;1.47;;;1.00;;
4365;SDS011;2196;47.422;9.656;2022-09-09T05:10:19;3.67;;;1.50;;
4365;SDS011;2196;47.422;9.656;2022-09-09T05:12:53;1.03;;;1.03;;
4365;SDS011;2196;47.422;9.656;2022-09-09T05:15:21;1.03;;;1.03;;
4365;SDS011;2196;47.422;9.656;2022-09-09T05:17:48;2.30;;;1.03;;
4365;SDS011;2196;47.422;9.656;2022-09-09T05:20:17;1.43;;;1.00;;
4365;SDS011;2196;47.422;9.656;2022-09-09T05:22:44;1.00;;;0.87;;
4365;SDS011;2196;47.422;9.656;2022-09-09T05:25:12;1.03;;;0.60;;
4365;SDS011;2196;47.422;9.656;2022-09-09T05:27:39;3.40;;;0.73;;
4365;SDS011;2196;47.422;9.656;2022-09-09T05:30:08;2.83;;;0.80;;
4365;SDS011;2196;47.422;9.656;2022-09-09T05:32:36;0.47;;;0.47;;
4365;SDS011;2196;47.422;9.656;2022-09-09T05:35:03;0.80;;;0.80;;
4365;SDS011;2196;47.422;9.656;2022-09-09T05:37:31;1.90;;;1.17;;
4365;SDS011;2196;47.422;9.656;2022-09-09T05:39:58;2.80;;;0.60;;
4365;SDS011;2196;47.422;9.656;2022-09-09T05:42:29;2.00;;;1.00;;
4365;SDS011;2196;47.422;9.656;2022-09-09T05:44:57;0.50;;;0.30;;
4365;SDS011;2196;47.422;9.656;2022-09-09T05:47:26;2.20;;;0.70;;
4365;SDS011;2196;47.422;9.656;2022-09-09T05:49:54;1.53;;;1.03;;
4365;SDS011;2196;47.422;9.656;2022-09-09T05:52:21;1.43;;;0.80;;
4365;SDS011;2196;47.422;9.656;2022-09-09T05:54:48;4.50;;;0.60;;
4365;SDS011;2196;47.422;9.656;2022-09-09T05:57:15;6.60;;;0.80;;
4365;SDS011;2196;47.422;9.656;2022-09-09T05:59:44;0.60;;;0.50;;
4365;SDS011;2196;47.422;9.656;2022-09-09T06:02:11;2.67;;;0.90;;
4365;SDS011;2196;47.422;9.656;2022-09-09T06:04:40;1.60;;;0.53;;
4365;SDS011;2196;47.422;9.656;2022-09-09T06:07:07;1.27;;;0.90;;
4365;SDS011;2196;47.422;9.656;2022-09-09T06:09:34;0.63;;;0.63;;
4365;SDS011;2196;47.422;9.656;2022-09-09T06:12:02;1.00;;;0.60;;
4365;SDS011;2196;47.422;9.656;2022-09-09T06:14:29;1.50;;;0.67;;
4365;SDS011;2196;47.422;9.656;2022-09-09T06:16:57;0.63;;;0.63;;
4365;SDS011;2196;47.422;9.656;2022-09-09T06:19:24;0.70;;;0.50;;
4365;SDS011;2196;47.422;9.656;2022-09-09T06:21:53;1.67;;;0.53;;
4365;SDS011;2196;47.422;9.656;2022-09-09T06:24:20;1.43;;;0.73;;
4365;SDS011;2196;47.422;9.656;2022-09-09T06:26:47;2.17;;;0.70;;
4365;SDS011;2196;47.422;9.656;2022-09-09T06:29:14;1.60;;;0.50;;
4365;SDS011;2196;47.422;9.656;2022-09-09T06:31:41;2.20;;;0.87;;
4365;SDS011;2196;47.422;9.656;2022-09-09T06:34:08;2.20;;;0.87;;
4365;SDS011;2196;47.422;9.656;2022-09-09T06:36:36;0.97;;;0.87;;
4365;SDS011;2196;47.422;9.656;2022-09-09T06:39:06;0.60;;;0.60;;
4365;SDS011;2196;47.422;9.656;2022-09-09T06:41:36;0.50;;;0.50;;
4365;SDS011;2196;47.422;9.656;2022-09-09T06:44:04;1.90;;;0.60;;
4365;SDS011;2196;47.422;9.656;2022-09-09T06:46:31;0.50;;;0.50;;
4365;SDS011;2196;47.422;9.656;2022-09-09T06:48:58;4.57;;;0.53;;
4365;SDS011;2196;47.422;9.656;2022-09-09T06:51:27;1.80;;;0.60;;
4365;SDS011;2196;47.422;9.656;2022-09-09T06:53:56;1.80;;;0.60;;
4365;SDS011;2196;47.422;9.656;2022-09-09T06:56:25;3.10;;;0.63;;
4365;SDS011;2196;47.422;9.656;2022-09-09T06:58:55;2.13;;;0.53;;
4365;SDS011;2196;47.422;9.656;2022-09-09T07:01:23;2.50;;;1.13;;
4365;SDS011;2196;47.422;9.656;2022-09-09T07:03:52;1.33;;;0.53;;
4365;SDS011;2196;47.422;9.656;2022-09-09T07:06:22;2.30;;;0.70;;
4365;SDS011;2196;47.422;9.656;2022-09-09T07:08:50;4.63;;;1.03;;
4365;SDS011;2196;47.422;9.656;2022-09-09T07:11:19;2.27;;;0.90;;
4365;SDS011;2196;47.422;9.656;2022-09-09T07:13:48;1.13;;;0.80;;
4365;SDS011;2196;47.422;9.656;2022-09-09T07:16:16;1.30;;;0.77;;
4365;SDS011;2196;47.422;9.656;2022-09-09T07:18:45;0.87;;;0.73;;
4365;SDS011;2196;47.422;9.656;2022-09-09T07:21:13;1.60;;;0.73;;
4365;SDS011;2196;47.422;9.656;2022-09-09T07:23:41;2.10;;;0.70;;
4365;SDS011;2196;47.422;9.656;2022-09-09T07:26:08;1.23;;;0.63;;
4365;SDS011;2196;47.422;9.656;2022-09-09T07:28:36;0.70;;;0.70;;
4365;SDS011;2196;47.422;9.656;2022-09-09T07:31:05;0.87;;;0.77;;
4365;SDS011;2196;47.422;9.656;2022-09-09T07:33:33;2.27;;;1.10;;
4365;SDS011;2196;47.422;9.656;2022-09-09T07:36:02;0.67;;;0.67;;
4365;SDS011;2196;47.422;9.656;2022-09-09T07:38:30;0.40;;;0.40;;
4365;SDS011;2196;47.422;9.656;2022-09-09T07:41:02;2.87;;;0.83;;
4365;SDS011;2196;47.422;9.656;2022-09-09T07:43:31;1.90;;;0.60;;
4365;SDS011;2196;47.422;9.656;2022-09-09T07:45:59;1.80;;;0.90;;
4365;SDS011;2196;47.422;9.656;2022-09-09T07:48:29;1.03;;;0.87;;
4365;SDS011;2196;47.422;9.656;2022-09-09T07:51:03;1.80;;;0.70;;
4365;SDS011;2196;47.422;9.656;2022-09-09T07:53:32;1.03;;;0.60;;
4365;SDS011;2196;47.422;9.656;2022-09-09T07:56:03;3.23;;;0.70;;
4365;SDS011;2196;47.422;9.656;2022-09-09T07:58:31;0.60;;;0.60;;
4365;SDS011;2196;47.422;9.656;2022-09-09T08:00:58;0.70;;;0.50;;
4365;SDS011;2196;47.422;9.656;2022-09-09T08:03:25;1.53;;;0.80;;
4365;SDS011;2196;47.422;9.656;2022-09-09T08:05:53;1.60;;;0.60;;
4365;SDS011;2196;47.422;9.656;2022-09-09T08:08:27;1.87;;;1.00;;
4365;SDS011;2196;47.422;9.656;2022-09-09T08:11:00;2.47;;;0.90;;
4365;SDS011;2196;47.422;9.656;2022-09-09T08:13:28;0.83;;;0.83;;
4365;SDS011;2196;47.422;9.656;2022-09-09T08:16:03;1.30;;;0.87;;
4365;SDS011;2196;47.422;9.656;2022-09-09T08:18:30;2.97;;;0.80;;
4365;SDS011;2196;47.422;9.656;2022-09-09T08:20:59;0.77;;;0.77;;
4365;SDS011;2196;47.422;9.656;2022-09-09T08:23:32;1.90;;;1.20;;
4365;SDS011;2196;47.422;9.656;2022-09-09T08:26:03;3.23;;;0.90;;
4365;SDS011;2196;47.422;9.656;2022-09-09T08:28:31;1.83;;;0.90;;
4365;SDS011;2196;47.422;9.656;2022-09-09T08:31:04;1.23;;;0.90;;
4365;SDS011;2196;47.422;9.656;2022-09-09T08:33:36;2.10;;;0.93;;
4365;SDS011;2196;47.422;9.656;2022-09-09T08:36:05;3.07;;;1.07;;
4365;SDS011;2196;47.422;9.656;2022-09-09T08:38:34;1.87;;;0.80;;
4365;SDS011;2196;47.422;9.656;2022-09-09T08:44:06;4.07;;;0.93;;
4365;SDS011;2196;47.422;9.656;2022-09-09T08:46:39;2.67;;;1.07;;
4365;SDS011;2196;47.422;9.656;2022-09-09T08:49:18;1.37;;;0.70;;
4365;SDS011;2196;47.422;9.656;2022-09-09T08:52:02;2.83;;;0.90;;
4365;SDS011;2196;47.422;9.656;2022-09-09T08:54:35;2.73;;;0.73;;
4365;SDS011;2196;47.422;9.656;2022-09-09T08:57:02;0.70;;;0.70;;
4365;SDS011;2196;47.422;9.656;2022-09-09T08:59:38;1.50;;;0.70;;
4365;SDS011;2196;47.422;9.656;2022-09-09T09:02:07;0.77;;;0.73;;
4365;SDS011;2196;47.422;9.656;2022-09-09T09:04:45;2.33;;;0.90;;
4365;SDS011;2196;47.422;9.656;2022-09-09T09:07:35;2.30;;;1.07;;
4365;SDS011;2196;47.422;9.656;2022-09-09T09:10:16;2.40;;;1.10;;
4365;SDS011;2196;47.422;9.656;2022-09-09T09:12:59;1.43;;;1.03;;
4365;SDS011;2196;47.422;9.656;2022-09-09T09:15:28;1.33;;;0.73;;
4365;SDS011;2196;47.422;9.656;2022-09-09T09:18:02;1.43;;;0.80;;
4365;SDS011;2196;47.422;9.656;2022-09-09T09:20:32;0.98;;;0.80;;
4365;SDS011;2196;47.422;9.656;2022-09-09T09:23:09;3.30;;;1.50;;
4365;SDS011;2196;47.422;9.656;2022-09-09T09:25:48;1.07;;;0.80;;
4365;SDS011;2196;47.422;9.656;2022-09-09T09:28:21;2.43;;;1.30;;
4365;SDS011;2196;47.422;9.656;2022-09-09T09:30:52;2.47;;;0.77;;
4365;SDS011;2196;47.422;9.656;2022-09-09T09:33:24;3.60;;;1.50;;
4365;SDS011;2196;47.422;9.656;2022-09-09T09:35:55;1.80;;;1.17;;
4365;SDS011;2196;47.422;9.656;2022-09-09T09:38:28;2.53;;;0.90;;
4365;SDS011;2196;47.422;9.656;2022-09-09T09:40:56;2.07;;;0.80;;
4365;SDS011;2196;47.422;9.656;2022-09-09T09:43:26;1.90;;;0.70;;
4365;SDS011;2196;47.422;9.656;2022-09-09T09:45:55;0.97;;;0.70;;
4365;SDS011;2196;47.422;9.656;2022-09-09T09:48:23;2.10;;;0.57;;
4365;SDS011;2196;47.422;9.656;2022-09-09T09:50:51;0.87;;;0.60;;
4365;SDS011;2196;47.422;9.656;2022-09-09T09:53:21;2.00;;;1.50;;
4365;SDS011;2196;47.422;9.656;2022-09-09T09:56:02;0.60;;;0.60;;
4365;SDS011;2196;47.422;9.656;2022-09-09T09:58:54;0.63;;;0.63;;
4365;SDS011;2196;47.422;9.656;2022-09-09T10:01:22;1.00;;;0.60;;
4365;SDS011;2196;47.422;9.656;2022-09-09T10:03:53;1.57;;;0.57;;
4365;SDS011;2196;47.422;9.656;2022-09-09T10:06:29;1.80;;;1.33;;
4365;SDS011;2196;47.422;9.656;2022-09-09T10:08:58;2.40;;;2.10;;
4365;SDS011;2196;47.422;9.656;2022-09-09T10:11:40;1.67;;;0.80;;
4365;SDS011;2196;47.422;9.656;2022-09-09T10:14:15;0.97;;;0.50;;
4365;SDS011;2196;47.422;9.656;2022-09-09T10:16:50;2.97;;;1.17;;
4365;SDS011;2196;47.422;9.656;2022-09-09T10:19:28;1.57;;;0.50;;
4365;SDS011;2196;47.422;9.656;2022-09-09T10:22:14;3.17;;;0.80;;
4365;SDS011;2196;47.422;9.656;2022-09-09T10:25:04;1.13;;;0.30;;
4365;SDS011;2196;47.422;9.656;2022-09-09T10:27:50;1.00;;;0.33;;
4365;SDS011;2196;47.422;9.656;2022-09-09T10:30:40;0.40;;;0.30;;
4365;SDS011;2196;47.422;9.656;2022-09-09T10:33:20;1.17;;;0.50;;
4365;SDS011;2196;47.422;9.656;2022-09-09T10:35:58;0.77;;;0.40;;
4365;SDS011;2196;47.422;9.656;2022-09-09T10:38:37;0.77;;;0.60;;
4365;SDS011;2196;47.422;9.656;2022-09-09T10:41:13;0.80;;;0.40;;
4365;SDS011;2196;47.422;9.656;2022-09-09T10:43:59;2.00;;;0.40;;
4365;SDS011;2196;47.422;9.656;2022-09-09T10:46:41;0.53;;;0.50;;
4365;SDS011;2196;47.422;9.656;2022-09-09T10:49:20;0.90;;;0.50;;
4365;SDS011;2196;47.422;9.656;2022-09-09T10:52:00;0.90;;;0.33;;
4365;SDS011;2196;47.422;9.656;2022-09-09T10:54:37;1.50;;;0.47;;
4365;SDS011;2196;47.422;9.656;2022-09-09T10:57:22;0.50;;;0.50;;
4365;SDS011;2196;47.422;9.656;2022-09-09T10:59:58;0.83;;;0.53;;
4365;SDS011;2196;47.422;9.656;2022-09-09T11:02:31;1.23;;;0.60;;
4365;SDS011;2196;47.422;9.656;2022-09-09T11:05:00;0.50;;;0.50;;
4365;SDS011;2196;47.422;9.656;2022-09-09T11:07:33;0.80;;;0.60;;
4365;SDS011;2196;47.422;9.656;2022-09-09T11:10:06;0.30;;;0.30;;
4365;SDS011;2196;47.422;9.656;2022-09-09T11:12:45;0.97;;;0.47;;
4365;SDS011;2196;47.422;9.656;2022-09-09T11:15:18;0.70;;;0.70;;
4365;SDS011;2196;47.422;9.656;2022-09-09T11:17:52;0.50;;;0.50;;
4365;SDS011;2196;47.422;9.656;2022-09-09T11:20:25;1.77;;;0.63;;
4365;SDS011;2196;47.422;9.656;2022-09-09T11:22:54;0.40;;;0.40;;
4365;SDS011;2196;47.422;9.656;2022-09-09T11:25:29;0.63;;;0.60;;
4365;SDS011;2196;47.422;9.656;2022-09-09T11:28:06;1.00;;;0.60;;
4365;SDS011;2196;47.422;9.656;2022-09-09T11:30:52;1.23;;;0.50;;
4365;SDS011;2196;47.422;9.656;2022-09-09T11:33:42;0.50;;;0.47;;
4365;SDS011;2196;47.422;9.656;2022-09-09T11:39:30;0.90;;;0.90;;
4365;SDS011;2196;47.422;9.656;2022-09-09T11:42:25;1.67;;;0.40;;
4365;SDS011;2196;47.422;9.656;2022-09-09T11:44:52;1.57;;;0.40;;
4365;SDS011;2196;47.422;9.656;2022-09-09T11:47:22;3.13;;;1.50;;
4365;SDS011;2196;47.422;9.656;2022-09-09T11:49:54;1.50;;;0.50;;
4365;SDS011;2196;47.422;9.656;2022-09-09T11:52:22;1.23;;;0.50;;
4365;SDS011;2196;47.422;9.656;2022-09-09T11:55:08;0.97;;;0.30;;
4365;SDS011;2196;47.422;9.656;2022-09-09T11:57:37;4.50;;;0.40;;
4365;SDS011;2196;47.422;9.656;2022-09-09T12:00:05;0.40;;;0.30;;
4365;SDS011;2196;47.422;9.656;2022-09-09T12:02:35;0.30;;;0.30;;
4365;SDS011;2196;47.422;9.656;2022-09-09T12:05:04;0.83;;;0.53;;
4365;SDS011;2196;47.422;9.656;2022-09-09T12:07:35;0.87;;;0.33;;
4365;SDS011;2196;47.422;9.656;2022-09-09T12:10:17;0.30;;;0.30;;
4365;SDS011;2196;47.422;9.656;2022-09-09T12:12:51;0.40;;;0.30;;
4365;SDS011;2196;47.422;9.656;2022-09-09T12:15:20;0.93;;;0.43;;
4365;SDS011;2196;47.422;9.656;2022-09-09T12:17:55;1.63;;;0.40;;
4365;SDS011;2196;47.422;9.656;2022-09-09T12:20:26;0.50;;;0.50;;
4365;SDS011;2196;47.422;9.656;2022-09-09T12:23:05;1.20;;;0.50;;
4365;SDS011;2196;47.422;9.656;2022-09-09T12:25:57;0.60;;;0.60;;
4365;SDS011;2196;47.422;9.656;2022-09-09T12:28:39;0.90;;;0.90;;
4365;SDS011;2196;47.422;9.656;2022-09-09T12:31:14;1.97;;;1.57;;
4365;SDS011;2196;47.422;9.656;2022-09-09T12:33:48;1.43;;;1.00;;
4365;SDS011;2196;47.422;9.656;2022-09-09T12:36:18;0.73;;;0.60;;
4365;SDS011;2196;47.422;9.656;2022-09-09T12:38:48;1.80;;;0.60;;
4365;SDS011;2196;47.422;9.656;2022-09-09T12:41:20;0.37;;;0.37;;
4365;SDS011;2196;47.422;9.656;2022-09-09T12:43:48;1.07;;;0.60;;
4365;SDS011;2196;47.422;9.656;2022-09-09T12:46:19;2.53;;;0.53;;
4365;SDS011;2196;47.422;9.656;2022-09-09T12:48:52;0.40;;;0.40;;
4365;SDS011;2196;47.422;9.656;2022-09-09T12:51:21;0.30;;;0.30;;
4365;SDS011;2196;47.422;9.656;2022-09-09T12:53:52;1.27;;;0.60;;
4365;SDS011;2196;47.422;9.656;2022-09-09T12:56:20;2.20;;;0.60;;
4365;SDS011;2196;47.422;9.656;2022-09-09T12:58:49;0.67;;;0.40;;
4365;SDS011;2196;47.422;9.656;2022-09-09T13:01:20;0.50;;;0.50;;
4365;SDS011;2196;47.422;9.656;2022-09-09T13:03:49;0.30;;;0.30;;
4365;SDS011;2196;47.422;9.656;2022-09-09T13:06:20;0.50;;;0.43;;
4365;SDS011;2196;47.422;9.656;2022-09-09T13:08:48;1.67;;;0.50;;
4365;SDS011;2196;47.422;9.656;2022-09-09T13:11:17;0.40;;;0.40;;
4365;SDS011;2196;47.422;9.656;2022-09-09T13:13:50;2.20;;;0.73;;
4365;SDS011;2196;47.422;9.656;2022-09-09T13:16:19;1.03;;;0.80;;
4365;SDS011;2196;47.422;9.656;2022-09-09T13:18:49;1.37;;;1.20;;
4365;SDS011;2196;47.422;9.656;2022-09-09T13:21:17;0.80;;;0.47;;
4365;SDS011;2196;47.422;9.656;2022-09-09T13:23:49;0.50;;;0.40;;
4365;SDS011;2196;47.422;9.656;2022-09-09T13:26:20;0.47;;;0.40;;
4365;SDS011;2196;47.422;9.656;2022-09-09T13:28:49;1.07;;;0.43;;
4365;SDS011;2196;47.422;9.656;2022-09-09T13:31:21;3.20;;;0.60;;
4365;SDS011;2196;47.422;9.656;2022-09-09T13:33:49;0.87;;;0.30;;
4365;SDS011;2196;47.422;9.656;2022-09-09T13:36:26;0.50;;;0.50;;
4365;SDS011;2196;47.422;9.656;2022-09-09T13:38:57;0.43;;;0.20;;
4365;SDS011;2196;47.422;9.656;2022-09-09T13:41:28;0.20;;;0.20;;
4365;SDS011;2196;47.422;9.656;2022-09-09T13:44:00;1.27;;;0.30;;
4365;SDS011;2196;47.422;9.656;2022-09-09T13:46:31;0.43;;;0.30;;
4365;SDS011;2196;47.422;9.656;2022-09-09T13:49:00;1.50;;;0.40;;
4365;SDS011;2196;47.422;9.656;2022-09-09T13:51:36;1.67;;;0.40;;
4365;SDS011;2196;47.422;9.656;2022-09-09T13:54:06;0.60;;;0.20;;
4365;SDS011;2196;47.422;9.656;2022-09-09T13:56:36;0.97;;;0.43;;
4365;SDS011;2196;47.422;9.656;2022-09-09T13:59:09;0.50;;;0.47;;
4365;SDS011;2196;47.422;9.656;2022-09-09T14:01:38;0.30;;;0.30;;
4365;SDS011;2196;47.422;9.656;2022-09-09T14:04:05;0.40;;;0.40;;
4365;SDS011;2196;47.422;9.656;2022-09-09T14:06:33;0.70;;;0.50;;
4365;SDS011;2196;47.422;9.656;2022-09-09T14:09:02;0.50;;;0.50;;
4365;SDS011;2196;47.422;9.656;2022-09-09T14:11:30;0.40;;;0.40;;
4365;SDS011;2196;47.422;9.656;2022-09-09T14:13:57;0.57;;;0.30;;
4365;SDS011;2196;47.422;9.656;2022-09-09T14:16:26;0.50;;;0.50;;
4365;SDS011;2196;47.422;9.656;2022-09-09T14:18:53;0.60;;;0.60;;
4365;SDS011;2196;47.422;9.656;2022-09-09T14:21:21;0.40;;;0.40;;
4365;SDS011;2196;47.422;9.656;2022-09-09T14:23:48;0.27;;;0.27;;
4365;SDS011;2196;47.422;9.656;2022-09-09T14:26:15;0.50;;;0.40;;
4365;SDS011;2196;47.422;9.656;2022-09-09T14:28:47;0.30;;;0.30;;
4365;SDS011;2196;47.422;9.656;2022-09-09T14:31:15;0.20;;;0.20;;
4365;SDS011;2196;47.422;9.656;2022-09-09T14:33:42;1.23;;;0.50;;
4365;SDS011;2196;47.422;9.656;2022-09-09T14:36:10;0.73;;;0.73;;
4365;SDS011;2196;47.422;9.656;2022-09-09T14:38:37;0.40;;;0.40;;
4365;SDS011;2196;47.422;9.656;2022-09-09T14:41:04;0.53;;;0.40;;
4365;SDS011;2196;47.422;9.656;2022-09-09T14:43:32;0.30;;;0.30;;
4365;SDS011;2196;47.422;9.656;2022-09-09T14:46:05;0.40;;;0.40;;
4365;SDS011;2196;47.422;9.656;2022-09-09T14:48:32;1.30;;;0.33;;
4365;SDS011;2196;47.422;9.656;2022-09-09T14:51:04;0.43;;;0.43;;
4365;SDS011;2196;47.422;9.656;2022-09-09T14:53:32;0.50;;;0.40;;
4365;SDS011;2196;47.422;9.656;2022-09-09T14:56:03;0.30;;;0.20;;
4365;SDS011;2196;47.422;9.656;2022-09-09T14:58:31;0.20;;;0.20;;
4365;SDS011;2196;47.422;9.656;2022-09-09T15:01:05;0.47;;;0.47;;
4365;SDS011;2196;47.422;9.656;2022-09-09T15:03:35;1.37;;;0.50;;
4365;SDS011;2196;47.422;9.656;2022-09-09T15:06:05;0.30;;;0.30;;
4365;SDS011;2196;47.422;9.656;2022-09-09T15:08:33;0.33;;;0.30;;
4365;SDS011;2196;47.422;9.656;2022-09-09T15:11:01;2.47;;;0.20;;
4365;SDS011;2196;47.422;9.656;2022-09-09T15:13:29;0.30;;;0.30;;
4365;SDS011;2196;47.422;9.656;2022-09-09T15:16:02;1.37;;;0.30;;
4365;SDS011;2196;47.422;9.656;2022-09-09T15:18:32;0.43;;;0.30;;
4365;SDS011;2196;47.422;9.656;2022-09-09T15:21:01;0.30;;;0.30;;
4365;SDS011;2196;47.422;9.656;2022-09-09T15:23:30;0.67;;;0.30;;
4365;SDS011;2196;47.422;9.656;2022-09-09T15:25:58;0.50;;;0.50;;
4365;SDS011;2196;47.422;9.656;2022-09-09T15:28:25;0.97;;;0.40;;
4365;SDS011;2196;47.422;9.656;2022-09-09T15:30:53;0.30;;;0.30;;
4365;SDS011;2196;47.422;9.656;2022-09-09T15:33:23;0.30;;;0.30;;
4365;SDS011;2196;47.422;9.656;2022-09-09T15:35:50;1.20;;;0.40;;
4365;SDS011;2196;47.422;9.656;2022-09-09T15:38:17;0.60;;;0.50;;
4365;SDS011;2196;47.422;9.656;2022-09-09T15:40:44;1.50;;;0.30;;
4365;SDS011;2196;47.422;9.656;2022-09-09T15:43:19;0.30;;;0.30;;
4365;SDS011;2196;47.422;9.656;2022-09-09T15:45:47;0.50;;;0.33;;
4365;SDS011;2196;47.422;9.656;2022-09-09T15:48:24;0.30;;;0.30;;